createdAt,value
2018-07-05T00:01:22.919Z,5.27
2018-07-05T00:04:09.159Z,8.13
2018-07-05T00:06:55.377Z,5.40
2018-07-05T00:09:41.534Z,5.20
2018-07-05T00:12:27.739Z,6.63
2018-07-05T00:15:13.950Z,4.87
2018-07-05T00:18:00.621Z,6.03
2018-07-05T00:20:47.216Z,7.65
2018-07-05T00:23:33.497Z,5.30
2018-07-05T00:26:19.763Z,5.37
2018-07-05T00:29:06.166Z,5.73
2018-07-05T00:31:52.618Z,5.67
2018-07-05T00:34:39.061Z,6.15
2018-07-05T00:37:25.425Z,5.03
2018-07-05T00:40:11.692Z,4.93
2018-07-05T00:42:57.804Z,6.37
2018-07-05T00:45:44.367Z,6.27
2018-07-05T00:48:30.899Z,6.05
2018-07-05T00:51:17.247Z,6.73
2018-07-05T00:54:03.890Z,6.37
2018-07-05T00:56:50.315Z,6.37
2018-07-05T00:59:36.695Z,5.63
2018-07-05T01:02:23.217Z,4.93
2018-07-05T01:05:09.694Z,6.90
2018-07-05T01:07:56.235Z,5.90
2018-07-05T01:10:42.766Z,6.07
2018-07-05T01:13:28.983Z,5.58
2018-07-05T01:16:15.280Z,5.73
2018-07-05T01:19:01.546Z,5.97
2018-07-05T01:21:47.887Z,7.07
2018-07-05T01:24:34.366Z,6.30
2018-07-05T01:27:20.864Z,6.17
2018-07-05T01:30:07.394Z,4.73
2018-07-05T01:32:53.655Z,4.87
2018-07-05T01:35:40.226Z,6.87
2018-07-05T01:38:26.629Z,4.80
2018-07-05T01:41:12.970Z,5.10
2018-07-05T01:43:59.458Z,6.63
2018-07-05T01:46:45.724Z,7.10
2018-07-05T01:49:32.154Z,5.90
2018-07-05T01:52:18.498Z,7.27
2018-07-05T01:55:05.083Z,6.80
2018-07-05T01:57:52.330Z,5.30
2018-07-05T02:00:38.970Z,5.43
2018-07-05T02:03:25.390Z,6.00
2018-07-05T02:06:11.827Z,5.50
2018-07-05T02:08:58.289Z,6.03
2018-07-05T02:11:44.738Z,4.97
2018-07-05T02:14:31.272Z,5.57
2018-07-05T02:17:11.680Z,8.60
2018-07-05T02:19:58.295Z,5.03
2018-07-05T02:22:44.654Z,7.53
2018-07-05T02:25:31.234Z,6.28
2018-07-05T02:28:17.625Z,5.60
2018-07-05T02:31:03.991Z,5.30
2018-07-05T02:33:50.543Z,6.60
2018-07-05T02:36:36.938Z,6.10
2018-07-05T02:39:28.928Z,6.90
2018-07-05T02:42:15.455Z,5.80
2018-07-05T02:45:01.832Z,6.10
2018-07-05T02:47:48.371Z,5.60
2018-07-05T02:50:34.875Z,6.40
2018-07-05T02:53:21.242Z,7.30
2018-07-05T02:56:07.699Z,5.90
2018-07-05T02:58:54.082Z,6.53
2018-07-05T03:01:40.509Z,7.87
2018-07-05T03:04:26.800Z,5.40
2018-07-05T03:07:08.385Z,6.17
2018-07-05T03:09:54.832Z,5.83
2018-07-05T03:12:41.168Z,6.53
2018-07-05T03:15:27.779Z,5.90
2018-07-05T03:18:14.352Z,5.83
2018-07-05T03:21:00.735Z,5.60
2018-07-05T03:23:47.155Z,5.60
2018-07-05T03:26:33.573Z,6.70
2018-07-05T03:29:20.054Z,4.77
2018-07-05T03:32:06.554Z,5.77
2018-07-05T03:34:52.966Z,5.20
2018-07-05T03:37:39.574Z,5.43
2018-07-05T03:40:25.696Z,6.87
2018-07-05T03:43:12.162Z,5.93
2018-07-05T03:45:58.367Z,5.57
2018-07-05T03:48:44.930Z,5.77
2018-07-05T03:51:31.413Z,5.23
2018-07-05T03:54:17.734Z,5.90
2018-07-05T03:57:03.996Z,5.27
2018-07-05T03:59:50.262Z,5.70
2018-07-05T04:02:36.720Z,5.83
2018-07-05T04:05:23.184Z,4.97
2018-07-05T04:08:09.674Z,4.80
2018-07-05T04:10:49.967Z,5.40
2018-07-05T04:13:36.666Z,6.37
2018-07-05T04:16:23.043Z,5.17
2018-07-05T04:19:09.507Z,5.47
2018-07-05T04:21:55.963Z,6.50
2018-07-05T04:24:42.331Z,4.65
2018-07-05T04:27:28.563Z,5.20
2018-07-05T04:30:14.879Z,5.10
2018-07-05T04:33:01.230Z,4.57
2018-07-05T04:35:47.527Z,5.70
2018-07-05T04:38:33.502Z,4.90
2018-07-05T04:41:19.719Z,5.13
2018-07-05T04:44:06.200Z,5.20
2018-07-05T04:46:52.743Z,6.53
2018-07-05T04:49:39.160Z,4.53
2018-07-05T04:52:26.436Z,4.90
2018-07-05T04:55:12.841Z,6.40
2018-07-05T04:57:59.412Z,6.03
2018-07-05T05:00:45.894Z,5.40
2018-07-05T05:03:31.962Z,5.53
2018-07-05T05:06:18.033Z,5.63
2018-07-05T05:09:04.970Z,6.23
2018-07-05T05:11:51.379Z,4.40
2018-07-05T05:17:37.674Z,4.55
2018-07-05T05:20:24.018Z,3.70
2018-07-05T05:23:10.302Z,3.97
2018-07-05T05:25:56.870Z,4.97
2018-07-05T05:28:43.084Z,4.00
2018-07-05T05:31:29.448Z,3.80
2018-07-05T05:34:15.590Z,8.75
2018-07-05T05:37:02.214Z,4.30
2018-07-05T05:39:48.780Z,3.97
2018-07-05T05:42:35.233Z,4.17
2018-07-05T05:45:21.440Z,3.52
2018-07-05T05:48:07.605Z,3.93
2018-07-05T05:50:53.782Z,3.37
2018-07-05T05:53:40.310Z,5.75
2018-07-05T05:56:26.947Z,4.37
2018-07-05T05:59:13.333Z,3.90
2018-07-05T06:01:59.682Z,7.13
2018-07-05T06:04:46.014Z,4.20
2018-07-05T06:07:32.159Z,4.15
2018-07-05T06:10:18.629Z,4.97
2018-07-05T06:13:05.207Z,3.40
2018-07-05T06:15:46.542Z,3.80
2018-07-05T06:18:32.627Z,4.40
2018-07-05T06:21:19.252Z,3.20
2018-07-05T06:24:05.561Z,5.03
2018-07-05T06:27:08.446Z,5.03
2018-07-05T06:29:54.634Z,4.80
2018-07-05T06:32:40.905Z,9.30
2018-07-05T06:35:26.908Z,4.33
2018-07-05T06:38:13.127Z,3.60
2018-07-05T06:41:00.020Z,3.60
2018-07-05T06:43:46.546Z,3.87
2018-07-05T06:46:33.170Z,5.28
2018-07-05T06:49:13.529Z,4.63
2018-07-05T06:52:00.012Z,4.85
2018-07-05T06:54:46.770Z,4.25
2018-07-05T06:57:33.091Z,3.07
2018-07-05T07:00:19.826Z,3.08
2018-07-05T07:03:06.207Z,4.67
2018-07-05T07:05:52.708Z,3.47
2018-07-05T07:08:39.179Z,3.65
2018-07-05T07:11:25.647Z,5.10
2018-07-05T07:14:12.259Z,4.23
2018-07-05T07:16:58.679Z,3.85
2018-07-05T07:19:45.071Z,3.83
2018-07-05T07:22:31.589Z,4.33
2018-07-05T07:25:17.823Z,5.37
2018-07-05T07:28:04.230Z,4.10
2018-07-05T07:30:50.751Z,4.53
2018-07-05T07:33:37.158Z,3.90
2018-07-05T07:36:23.325Z,4.85
2018-07-05T07:39:09.575Z,3.95
2018-07-05T07:41:45.226Z,4.62
2018-07-05T07:44:13.018Z,4.92
2018-07-05T07:46:40.752Z,4.65
2018-07-05T07:49:08.451Z,4.87
2018-07-05T07:51:36.171Z,7.20
2018-07-05T07:54:03.895Z,4.90
2018-07-05T07:56:31.686Z,5.55
2018-07-05T07:58:59.380Z,6.17
2018-07-05T08:01:27.119Z,4.90
2018-07-05T08:03:56.090Z,5.25
2018-07-05T08:06:23.810Z,5.60
2018-07-05T08:08:51.530Z,6.90
2018-07-05T08:11:19.246Z,6.97
2018-07-05T08:13:46.953Z,6.22
2018-07-05T08:16:14.656Z,5.58
2018-07-05T08:18:42.372Z,5.40
2018-07-05T08:21:10.067Z,5.60
2018-07-05T08:23:37.772Z,5.90
2018-07-05T08:26:05.487Z,6.05
2018-07-05T08:28:33.211Z,6.10
2018-07-05T08:31:01.014Z,6.17
2018-07-05T08:33:28.727Z,6.67
2018-07-05T08:35:56.468Z,6.70
2018-07-05T08:38:24.204Z,7.47
2018-07-05T08:40:51.906Z,6.53
2018-07-05T08:43:19.620Z,6.83
2018-07-05T08:45:47.318Z,6.33
2018-07-05T08:48:15.033Z,8.77
2018-07-05T08:50:42.725Z,7.05
2018-07-05T08:53:10.426Z,7.35
2018-07-05T08:55:38.122Z,8.37
2018-07-05T08:58:05.890Z,7.30
2018-07-05T09:00:33.605Z,8.50
2018-07-05T09:03:01.315Z,7.97
2018-07-05T09:05:29.019Z,8.30
2018-07-05T09:07:56.743Z,9.13
2018-07-05T09:10:24.462Z,7.95
2018-07-05T09:12:52.197Z,8.70
2018-07-05T09:15:19.887Z,8.57
2018-07-05T09:17:47.848Z,7.47
2018-07-05T09:20:16.653Z,7.40
2018-07-05T09:22:44.370Z,6.97
2018-07-05T09:25:12.064Z,7.97
2018-07-05T09:27:39.767Z,7.73
2018-07-05T09:30:07.466Z,8.03
2018-07-05T09:32:35.184Z,7.25
2018-07-05T09:35:02.879Z,6.50
2018-07-05T09:37:30.616Z,7.03
2018-07-05T09:39:58.325Z,6.33
2018-07-05T09:42:26.038Z,7.37
2018-07-05T09:44:53.729Z,8.40
2018-07-05T09:47:21.577Z,6.35
2018-07-05T09:49:49.275Z,7.05
2018-07-05T09:52:16.982Z,7.40
2018-07-05T09:54:44.691Z,6.40
2018-07-05T09:57:12.388Z,7.08
2018-07-05T09:59:40.108Z,9.55
2018-07-05T10:02:07.925Z,6.07
2018-07-05T10:04:35.731Z,7.73
2018-07-05T10:07:03.452Z,6.55
2018-07-05T10:09:31.183Z,6.92
2018-07-05T10:11:58.912Z,6.53
2018-07-05T10:14:26.625Z,8.60
2018-07-05T10:16:54.334Z,6.67
2018-07-05T10:19:22.051Z,6.40
2018-07-05T10:21:49.747Z,6.00
2018-07-05T10:24:17.454Z,6.85
2018-07-05T10:26:46.424Z,6.53
2018-07-05T10:29:32.716Z,8.65
2018-07-05T10:32:18.950Z,6.60
2018-07-05T10:34:46.698Z,6.23
2018-07-05T10:37:18.458Z,7.75
2018-07-05T10:40:05.339Z,5.55
2018-07-05T10:42:51.835Z,6.30
2018-07-05T10:45:38.268Z,6.15
2018-07-05T10:48:24.816Z,7.50
2018-07-05T10:51:11.273Z,6.03
2018-07-05T10:53:57.472Z,6.33
2018-07-05T10:56:43.998Z,7.37
2018-07-05T10:59:30.552Z,6.20
2018-07-05T11:02:16.951Z,5.75
2018-07-05T11:05:03.510Z,5.12
2018-07-05T11:07:49.767Z,7.13
2018-07-05T11:10:36.053Z,5.00
2018-07-05T11:13:22.463Z,5.30
2018-07-05T11:16:08.723Z,4.65
2018-07-05T11:18:55.366Z,4.58
2018-07-05T11:21:41.583Z,8.88
2018-07-05T11:24:28.422Z,4.78
2018-07-05T11:27:15.033Z,4.78
2018-07-05T11:30:01.424Z,5.17
2018-07-05T11:32:47.937Z,4.00
2018-07-05T11:35:35.225Z,4.37
2018-07-05T11:38:21.743Z,4.10
2018-07-05T11:41:08.350Z,4.62
2018-07-05T11:43:55.008Z,4.30
2018-07-05T11:46:41.678Z,4.60
2018-07-05T11:49:28.257Z,5.37
2018-07-05T11:52:14.662Z,4.80
2018-07-05T11:55:01.074Z,4.93
2018-07-05T11:57:48.463Z,4.28
2018-07-05T12:00:34.958Z,4.25
2018-07-05T12:03:20.967Z,4.07
2018-07-05T12:06:07.455Z,6.58
2018-07-05T12:08:53.948Z,4.57
2018-07-05T12:11:40.391Z,4.77
2018-07-05T12:14:26.901Z,4.30
2018-07-05T12:17:13.218Z,4.30
2018-07-05T12:19:59.342Z,4.20
2018-07-05T12:22:45.542Z,3.92
2018-07-05T12:25:31.678Z,4.27
2018-07-05T12:28:17.942Z,4.20
2018-07-05T12:31:04.787Z,3.84
2018-07-05T12:33:50.886Z,5.27
2018-07-05T12:36:37.138Z,7.93
2018-07-05T12:39:23.371Z,6.42
2018-07-05T12:42:09.543Z,4.87
2018-07-05T12:44:55.655Z,6.00
2018-07-05T12:47:41.966Z,5.90
2018-07-05T12:50:27.967Z,5.90
2018-07-05T12:53:14.014Z,7.85
2018-07-05T12:56:00.113Z,6.20
2018-07-05T12:58:46.191Z,6.63
2018-07-05T13:01:32.111Z,5.93
2018-07-05T13:04:18.286Z,5.90
2018-07-05T13:07:04.674Z,7.23
2018-07-05T13:09:51.157Z,6.22
2018-07-05T13:12:37.871Z,5.57
2018-07-05T13:15:24.111Z,5.10
2018-07-05T13:18:10.484Z,5.78
2018-07-05T13:20:56.883Z,6.63
2018-07-05T13:23:43.382Z,7.37
2018-07-05T13:26:30.792Z,9.38
2018-07-05T13:29:17.070Z,10.47
2018-07-05T13:32:03.504Z,9.15
2018-07-05T13:34:49.919Z,10.03
2018-07-05T13:37:36.264Z,13.00
2018-07-05T13:40:22.990Z,13.13
2018-07-05T13:43:03.303Z,13.58
2018-07-05T13:45:49.580Z,15.13
2018-07-05T13:48:35.914Z,15.23
2018-07-05T13:51:22.515Z,15.20
2018-07-05T13:54:08.916Z,12.97
2018-07-05T13:56:55.389Z,13.20
2018-07-05T13:59:41.990Z,15.10
2018-07-05T14:02:28.499Z,10.87
2018-07-05T14:05:15.168Z,11.80
2018-07-05T14:08:01.648Z,10.05
2018-07-05T14:10:47.847Z,8.03
2018-07-05T14:13:34.106Z,7.97
2018-07-05T14:16:20.231Z,7.17
2018-07-05T14:19:06.421Z,5.40
2018-07-05T14:21:52.628Z,5.85
2018-07-05T14:24:38.845Z,5.23
2018-07-05T14:27:24.897Z,6.20
2018-07-05T14:30:11.934Z,6.62
2018-07-05T14:32:58.043Z,6.53
2018-07-05T14:35:44.282Z,5.90
2018-07-05T14:38:30.459Z,6.78
2018-07-05T14:41:16.678Z,5.60
2018-07-05T14:44:02.894Z,5.83
2018-07-05T14:46:49.043Z,6.12
2018-07-05T14:49:35.542Z,6.43
2018-07-05T14:52:21.614Z,8.70
2018-07-05T14:55:07.778Z,7.40
2018-07-05T14:57:54.032Z,6.17
2018-07-05T15:00:40.231Z,6.45
2018-07-05T15:03:26.315Z,8.37
2018-07-05T15:06:12.423Z,5.70
2018-07-05T15:08:59.615Z,6.87
2018-07-05T15:11:45.581Z,7.30
2018-07-05T15:14:31.990Z,8.20
2018-07-05T15:17:12.406Z,6.72
2018-07-05T15:19:58.842Z,5.93
2018-07-05T15:22:45.230Z,5.37
2018-07-05T15:25:31.495Z,7.00
2018-07-05T15:28:17.874Z,9.33
2018-07-05T15:31:03.986Z,6.97
2018-07-05T15:33:51.210Z,6.46
2018-07-05T15:36:37.405Z,5.50
2018-07-05T15:39:23.647Z,5.95
2018-07-05T15:42:09.740Z,5.65
2018-07-05T15:44:55.918Z,5.40
2018-07-05T15:47:42.067Z,5.93
2018-07-05T15:50:28.291Z,5.75
2018-07-05T15:53:14.636Z,5.90
2018-07-05T15:56:00.729Z,10.75
2018-07-05T15:58:46.826Z,7.50
2018-07-05T16:01:33.081Z,9.37
2018-07-05T16:04:19.317Z,9.95
2018-07-05T16:07:05.529Z,9.70
2018-07-05T16:09:51.626Z,12.57
2018-07-05T16:12:38.759Z,12.50
2018-07-05T16:15:24.947Z,13.13
2018-07-05T16:18:11.109Z,14.13
2018-07-05T16:20:57.199Z,16.05
2018-07-05T16:23:43.440Z,14.80
2018-07-05T16:26:29.670Z,14.13
2018-07-05T16:29:17.023Z,14.60
2018-07-05T16:32:03.228Z,12.63
2018-07-05T16:34:49.290Z,12.10
2018-07-05T16:37:35.330Z,10.70
2018-07-05T16:40:21.427Z,9.33
2018-07-05T16:43:07.701Z,9.18
2018-07-05T16:45:53.747Z,8.65
2018-07-05T16:48:39.878Z,8.27
2018-07-05T16:51:26.123Z,7.05
2018-07-05T16:54:12.375Z,6.33
2018-07-05T16:56:58.634Z,5.97
2018-07-05T16:59:44.931Z,6.10
2018-07-05T17:02:31.274Z,5.63
2018-07-05T17:05:17.595Z,6.03
2018-07-05T17:08:04.082Z,5.60
2018-07-05T17:10:51.674Z,4.80
2018-07-05T17:13:38.070Z,4.60
2018-07-05T17:16:24.632Z,5.25
2018-07-05T17:19:11.048Z,4.63
2018-07-05T17:21:51.558Z,4.87
2018-07-05T17:24:38.805Z,4.40
2018-07-05T17:27:24.944Z,5.40
2018-07-05T17:30:11.235Z,5.58
2018-07-05T17:32:57.428Z,4.97
2018-07-05T17:35:43.618Z,4.30
2018-07-05T17:38:29.943Z,5.10
2018-07-05T17:41:16.011Z,4.75
2018-07-05T17:44:02.004Z,4.37
2018-07-05T17:46:48.027Z,3.90
2018-07-05T17:49:34.078Z,3.87
2018-07-05T17:52:20.268Z,5.13
2018-07-05T17:55:06.754Z,4.33
2018-07-05T17:57:52.712Z,3.77
2018-07-05T18:00:38.836Z,4.22
2018-07-05T18:03:24.943Z,5.28
2018-07-05T18:06:11.162Z,3.83
2018-07-05T18:08:57.490Z,4.13
2018-07-05T18:11:44.940Z,4.40
2018-07-05T18:14:31.321Z,3.57
2018-07-05T18:17:17.844Z,4.80
2018-07-05T18:20:04.315Z,3.55
2018-07-05T18:22:50.770Z,3.20
2018-07-05T18:25:36.949Z,2.85
2018-07-05T18:28:23.181Z,3.10
2018-07-05T18:31:09.363Z,2.77
2018-07-05T18:33:55.683Z,3.37
2018-07-05T18:36:42.134Z,3.33
2018-07-05T18:39:28.427Z,2.90
2018-07-05T18:42:14.548Z,3.10
2018-07-05T18:45:00.663Z,3.27
2018-07-05T18:47:46.850Z,3.10
2018-07-05T18:50:33.279Z,2.72
2018-07-05T18:53:19.484Z,3.30
2018-07-05T18:56:06.028Z,2.67
2018-07-05T18:58:52.610Z,3.12
2018-07-05T19:01:38.963Z,3.33
2018-07-05T19:04:25.254Z,3.92
2018-07-05T19:07:11.666Z,4.92
2018-07-05T19:09:58.466Z,3.83
2018-07-05T19:12:44.869Z,3.55
2018-07-05T19:15:31.424Z,2.90
2018-07-05T19:18:17.931Z,2.90
2018-07-05T19:21:04.318Z,3.35
2018-07-05T19:23:50.608Z,3.72
2018-07-05T19:26:36.903Z,3.47
2018-07-05T19:29:22.984Z,3.58
2018-07-05T19:32:09.206Z,3.50
2018-07-05T19:34:55.347Z,2.58
2018-07-05T19:37:41.483Z,5.87
2018-07-05T19:40:27.598Z,2.73
2018-07-05T19:43:13.815Z,2.52
2018-07-05T19:46:00.035Z,2.70
2018-07-05T19:48:46.035Z,3.97
2018-07-05T19:51:32.030Z,3.43
2018-07-05T19:54:18.266Z,3.77
2018-07-05T19:57:05.170Z,6.07
2018-07-05T19:59:51.347Z,3.60
2018-07-05T20:02:37.347Z,4.90
2018-07-05T20:05:23.793Z,5.07
2018-07-05T20:08:10.393Z,4.10
2018-07-05T20:11:00.095Z,4.30
2018-07-05T20:13:46.530Z,4.00
2018-07-05T20:19:27.915Z,3.50
2018-07-05T20:22:18.671Z,3.50
2018-07-05T20:25:05.178Z,4.27
2018-07-05T20:27:51.596Z,4.72
2018-07-05T20:30:38.040Z,4.62
2018-07-05T20:33:24.618Z,4.23
2018-07-05T20:36:11.111Z,4.15
2018-07-05T20:38:57.569Z,4.37
2018-07-05T20:41:44.138Z,5.77
2018-07-05T20:44:30.500Z,4.87
2018-07-05T20:47:17.013Z,4.70
2018-07-05T20:50:03.905Z,4.20
2018-07-05T20:52:50.156Z,4.20
2018-07-05T20:55:36.475Z,4.23
2018-07-05T20:58:22.854Z,3.70
2018-07-05T21:01:09.377Z,4.50
2018-07-05T21:03:49.923Z,4.87
2018-07-05T21:06:36.300Z,4.37
2018-07-05T21:09:22.467Z,4.27
2018-07-05T21:12:08.608Z,4.30
2018-07-05T21:14:54.852Z,4.50
2018-07-05T21:17:41.091Z,4.77
2018-07-05T21:20:27.261Z,5.60
2018-07-05T21:23:13.258Z,4.13
2018-07-05T21:25:59.399Z,4.10
2018-07-05T21:28:45.534Z,3.80
2018-07-05T21:31:31.648Z,4.53
2018-07-05T21:34:17.850Z,5.03
2018-07-05T21:37:04.321Z,4.10
2018-07-05T21:39:50.693Z,4.13
2018-07-05T21:42:37.077Z,5.33
2018-07-05T21:45:23.528Z,3.13
2018-07-05T21:48:09.930Z,2.93
2018-07-05T21:50:56.398Z,3.77
2018-07-05T21:53:42.848Z,3.63
2018-07-05T21:56:29.245Z,4.37
2018-07-05T21:59:15.783Z,3.97
2018-07-05T22:02:02.314Z,5.90
2018-07-05T22:04:48.735Z,3.33
2018-07-05T22:07:35.233Z,4.43
2018-07-05T22:10:21.599Z,3.27
2018-07-05T22:13:07.903Z,4.03
2018-07-05T22:15:54.572Z,3.40
2018-07-05T22:18:45.879Z,3.60
2018-07-05T22:21:32.067Z,3.30
2018-07-05T22:24:23.847Z,3.50
2018-07-05T22:27:14.302Z,2.83
2018-07-05T22:30:06.033Z,3.13
2018-07-05T22:32:52.308Z,2.70
2018-07-05T22:35:39.175Z,3.70
2018-07-05T22:38:25.646Z,2.60
2018-07-05T22:41:12.135Z,3.13
2018-07-05T22:43:58.620Z,5.03
2018-07-05T22:46:44.923Z,2.80
2018-07-05T22:49:31.314Z,2.62
2018-07-05T22:52:17.341Z,3.63
2018-07-05T22:55:03.729Z,3.40
2018-07-05T22:57:49.850Z,3.50
2018-07-05T23:00:35.950Z,3.60
2018-07-05T23:03:22.019Z,4.87
2018-07-05T23:06:08.004Z,4.50
2018-07-05T23:08:54.051Z,4.43
2018-07-05T23:11:40.270Z,4.37
2018-07-05T23:14:26.512Z,4.57
2018-07-05T23:17:13.006Z,3.97
2018-07-05T23:19:59.722Z,6.57
2018-07-05T23:22:45.927Z,3.70
2018-07-05T23:25:32.440Z,3.43
2018-07-05T23:28:18.992Z,3.57
2018-07-05T23:31:05.387Z,3.50
2018-07-05T23:33:51.746Z,5.10
2018-07-05T23:36:38.235Z,3.55
2018-07-05T23:39:24.859Z,5.17
2018-07-05T23:42:11.422Z,3.87
2018-07-05T23:44:58.046Z,5.37
2018-07-05T23:47:44.059Z,3.70
2018-07-05T23:50:30.095Z,6.53
2018-07-05T23:53:16.283Z,3.43
2018-07-05T23:56:02.429Z,4.50
2018-07-05T23:58:48.681Z,6.17
